• Join FlightAware (Why Join?)
  • Login
  • US Flag 
11:18AM EDT


 

Airport Tracker/Info


-or-


 

Live Flight TrackerFlight Track Log ✈ N8119H ✈ 29-Jun-2013 ✈ KBVY - KPSM

Flight Track Log - Related Links

Times and Time Zones

All times are in EDT time to prevent confusion due to time zone crossing. See the N8119H flight status page for this flight to view local times or setup timezone preferences in your user account.

Time Position Orientation Groundspeed Altitude Reporting Facility
EDT Latitude Longitude Course Direction KTS MPH feet Rate Location/Type
08:28AM 42.5833 -70.9000 90° East 70 81 700  Level KA90
08:28AM 42.5833 -70.8833 90° East 86 99 1,100 660 Climbing KA90
08:29AM 42.6000 -70.8500 56° Northeast 95 109 1,800 480 Climbing KA90
08:30AM 42.6167 -70.8167 56° Northeast 118 136 2,100 120 Climbing KA90
08:31AM 42.6333 -70.7833 56° Northeast 119 137 2,100  Level KA90
08:32AM 42.6667 -70.7500 36° Northeast 117 135 2,100 120 Level KA90
08:33AM 42.6833 -70.7333 36° Northeast 108 124 2,400 120 Climbing KA90
08:34AM 42.7167 -70.7167 20° North 121 139 2,400  Level KA90
08:35AM 42.7333 -70.7333 324° Northwest 101 116 2,500 60 Climbing KA90
08:36AM 42.7500 -70.7667 304° West 84 97 2,600 -60 Climbing KA90
08:37AM 42.7667 -70.7833 324° Northwest 83 96 2,400 -120 Descending KA90
08:38AM 42.8000 -70.7833 360° North 72 83 2,400  Level KA90
08:39AM 42.7833 -70.7667 144° Southeast 75 86 2,500  Climbing KA90
08:40AM 42.7833 -70.7500 90° East 61 70 2,400  Descending KA90
08:41AM 42.7667 -70.7333 144° Southeast 62 71 2,500  Climbing KA90
08:42AM 42.7500 -70.7167 144° Southeast 59 68 2,500  Level KA90
08:43AM 42.7500 -70.7000 90° East 55 63 2,500  Level KA90
08:44AM 42.7333 -70.7167 216° Southwest 63 72 2,600 -60 Climbing KA90
08:45AM 42.7167 -70.7333 216° Southwest 66 76 2,400 -60 Descending KA90
08:46AM 42.7167 -70.7500 270° West 46 53 2,500  Climbing KA90
08:47AM 42.7167 -70.7667 270° West 52 60 2,400  Descending KA90
08:48AM 42.7167 -70.8000 270° West 72 83 2,600 240 Climbing KA90
08:49AM 42.7000 -70.8167 216° Southwest 83 96 2,900 240 Climbing KA90
08:50AM 42.7333 -70.8333 340° North 97 112 3,100  Climbing KA90
08:51AM 42.7333 -70.8667 270° West 89 102 3,000 -60 Descending KA90
08:52AM 42.7500 -70.9000 304° West 91 105 3,000  Level KA90
08:53AM 42.7500 -70.9333 270° West 94 108 3,000 -60 Level KA90
08:54AM 42.7667 -70.9667 304° West 98 113 2,900  Descending KA90
08:55AM 42.7667 -71.0000 270° West 89 102 3,000  Climbing KA90
08:56AM 42.7833 -71.0333 304° West 89 102 3,000  Level KA90
08:57AM 42.7667 -71.0500 216° Southwest 91 105 3,000 -60 Level KA90
08:58AM 42.7333 -71.0667 200° South 95 109 2,900 -240 Descending KA90
08:59AM 42.7167 -71.0500 144° Southeast 97 112 2,600 -360 Descending KA90
09:00AM 42.7000 -71.0333 144° Southeast 79 91 2,200 -600 Descending KA90
09:01AM 42.6833 -71.0167 144° Southeast 92 106 1,500 -720 Descending KA90